Time;durP1;ratioP1;P1;durP2;ratioP2;P2;SDS_P1;SDS_P2;PMS_P1;PMS_P2;Temp;Humidity;BMP_temperature;BMP_pressure;BME280_temperature;BME280_humidity;BME280_pressure;Samples;Min_cycle;Max_cycle;Signal;HPM_P1;HPM_P2
2023/10/03 05:24:11;;;;;;;1.20;1.05;;;;;;;;;;5070062;27;20763;-85
2023/10/03 05:26:39;;;;;;;3.88;2.90;;;;;;;;;;5065670;28;20473;-84
2023/10/03 05:29:04;;;;;;;1.85;1.60;;;;;;;;;;5068317;28;20031;-83
2023/10/03 05:31:30;;;;;;;3.63;3.17;;;;;;;;;;5066082;28;20040;-83
2023/10/03 05:33:56;;;;;;;2.05;1.70;;;;;;;;;;5064576;28;20234;-84
2023/10/03 05:36:22;;;;;;;3.60;1.70;;;;;;;;;;5065237;28;20029;-85
2023/10/03 05:38:48;;;;;;;5.20;2.53;;;;;;;;;;5063704;28;20385;-84
2023/10/03 05:41:20;;;;;;;5.90;2.83;;;;;;;;;;5066503;28;20036;-83
2023/10/03 05:43:46;;;;;;;2.53;1.88;;;;;;;;;;5064997;28;20043;-84
2023/10/03 05:46:11;;;;;;;4.10;2.38;;;;;;;;;;5065419;28;20025;-83
2023/10/03 05:48:37;;;;;;;6.93;2.03;;;;;;;;;;5063923;28;20029;-85
2023/10/03 05:51:02;;;;;;;2.45;1.90;;;;;;;;;;5064955;28;20240;-85
2023/10/03 05:53:28;;;;;;;3.08;1.95;;;;;;;;;;5064865;28;20101;-85
2023/10/03 05:55:53;;;;;;;3.25;2.03;;;;;;;;;;5063195;28;20037;-85
2023/10/03 05:58:19;;;;;;;4.47;3.00;;;;;;;;;;5063174;28;20048;-86
2023/10/03 06:00:44;;;;;;;3.30;2.90;;;;;;;;;;5065688;28;20135;-85
2023/10/03 06:03:10;;;;;;;5.30;3.60;;;;;;;;;;5061784;28;20590;-86
2023/10/03 06:05:35;;;;;;;3.83;2.25;;;;;;;;;;5065520;28;20029;-85
2023/10/03 06:08:01;;;;;;;5.28;2.35;;;;;;;;;;5062697;28;20075;-87
2023/10/03 06:10:29;;;;;;;4.80;2.15;;;;;;;;;;5061393;28;20032;-87
2023/10/03 06:12:54;;;;;;;5.43;2.70;;;;;;;;;;5062189;28;20028;-84
2023/10/03 06:15:20;;;;;;;4.60;2.45;;;;;;;;;;5060832;28;20055;-85
2023/10/03 06:17:45;;;;;;;4.88;2.30;;;;;;;;;;5060819;28;20060;-85
2023/10/03 06:20:14;;;;;;;4.80;2.42;;;;;;;;;;5056959;28;20131;-86
2023/10/03 06:22:40;;;;;;;4.50;3.35;;;;;;;;;;5054872;28;20413;-85
2023/10/03 06:25:07;;;;;;;3.78;2.30;;;;;;;;;;5058474;28;20034;-85
2023/10/03 06:27:33;;;;;;;14.85;2.47;;;;;;;;;;5056327;28;20028;-85
2023/10/03 06:29:58;;;;;;;4.13;3.15;;;;;;;;;;5058464;28;20033;-84
2023/10/03 06:32:23;;;;;;;3.47;2.83;;;;;;;;;;5060398;28;20053;-84
2023/10/03 06:34:50;;;;;;;8.25;3.00;;;;;;;;;;5053042;28;20060;-85
2023/10/03 06:37:16;;;;;;;3.08;2.38;;;;;;;;;;5048918;28;20107;-84
2023/10/03 06:39:42;;;;;;;4.85;2.60;;;;;;;;;;5049497;28;20025;-86
2023/10/03 06:42:07;;;;;;;3.42;2.30;;;;;;;;;;5049325;28;20067;-85
2023/10/03 06:44:33;;;;;;;3.88;1.63;;;;;;;;;;5047251;28;20256;-85
2023/10/03 06:46:58;;;;;;;5.60;3.28;;;;;;;;;;5047434;28;20033;-84
2023/10/03 06:49:24;;;;;;;10.13;3.38;;;;;;;;;;5046047;28;20025;-84
2023/10/03 06:51:51;;;;;;;6.07;2.40;;;;;;;;;;5047750;28;20051;-84
2023/10/03 06:54:17;;;;;;;5.43;2.92;;;;;;;;;;5048518;28;20059;-84
2023/10/03 06:56:43;;;;;;;10.45;2.70;;;;;;;;;;5050060;28;20098;-84
2023/10/03 06:59:10;;;;;;;10.57;3.15;;;;;;;;;;5051899;28;20025;-85
2023/10/03 07:01:37;;;;;;;5.38;2.47;;;;;;;;;;5052140;28;20056;-85
2023/10/03 07:04:04;;;;;;;7.65;3.42;;;;;;;;;;5053938;28;20029;-85
2023/10/03 07:06:30;;;;;;;15.57;4.28;;;;;;;;;;5050620;28;20036;-84
2023/10/03 07:08:56;;;;;;;5.28;2.95;;;;;;;;;;5048218;28;21246;-84
2023/10/03 07:11:24;;;;;;;4.13;2.85;;;;;;;;;;5044030;28;20174;-84
2023/10/03 07:13:52;;;;;;;3.83;2.38;;;;;;;;;;5045388;28;20033;-83
2023/10/03 07:16:18;;;;;;;5.70;3.65;;;;;;;;;;5051613;28;20029;-83
2023/10/03 07:18:44;;;;;;;24.17;4.78;;;;;;;;;;5052812;28;20025;-83
2023/10/03 07:21:10;;;;;;;4.22;2.90;;;;;;;;;;5051930;28;20382;-83
2023/10/03 07:23:36;;;;;;;5.85;3.00;;;;;;;;;;5050020;28;20045;-85
2023/10/03 07:26:01;;;;;;;3.97;2.45;;;;;;;;;;5049479;28;20032;-84
2023/10/03 07:28:27;;;;;;;12.55;3.78;;;;;;;;;;5047989;28;20463;-83
2023/10/03 07:30:52;;;;;;;3.95;3.20;;;;;;;;;;5051466;28;20035;-83
2023/10/03 07:33:18;;;;;;;4.90;3.08;;;;;;;;;;5052964;28;20017;-83
2023/10/03 07:35:44;;;;;;;7.47;3.85;;;;;;;;;;5049359;28;20041;-84
2023/10/03 07:38:11;;;;;;;7.55;3.30;;;;;;;;;;5049720;28;20057;-85
2023/10/03 07:40:38;;;;;;;7.00;3.80;;;;;;;;;;5048329;28;20448;-83
2023/10/03 07:43:06;;;;;;;13.77;1.92;;;;;;;;;;5046281;28;20049;-83
2023/10/03 07:45:32;;;;;;;9.38;2.97;;;;;;;;;;5046224;28;20055;-84
2023/10/03 07:48:04;;;;;;;8.85;3.50;;;;;;;;;;5051411;28;20036;-83
2023/10/03 07:50:31;;;;;;;4.18;2.60;;;;;;;;;;5048197;28;20021;-84
2023/10/03 07:52:57;;;;;;;4.57;2.65;;;;;;;;;;5052217;28;20104;-84
2023/10/03 07:55:26;;;;;;;7.72;2.47;;;;;;;;;;5050746;28;20025;-83
2023/10/03 07:57:54;;;;;;;4.77;3.37;;;;;;;;;;5049939;28;20036;-83
2023/10/03 08:00:26;;;;;;;4.22;3.03;;;;;;;;;;5050160;28;20384;-85
2023/10/03 08:02:55;;;;;;;8.85;4.25;;;;;;;;;;5049202;28;20040;-84
2023/10/03 08:05:27;;;;;;;4.13;1.70;;;;;;;;;;5050474;28;20021;-82
2023/10/03 08:07:53;;;;;;;5.00;3.20;;;;;;;;;;5051120;28;20036;-82
2023/10/03 08:10:19;;;;;;;3.63;2.47;;;;;;;;;;5050641;28;20032;-82
2023/10/03 08:12:46;;;;;;;8.30;3.83;;;;;;;;;;5050720;28;20044;-82
2023/10/03 08:15:18;;;;;;;4.45;3.40;;;;;;;;;;5045788;28;20678;-82
2023/10/03 08:17:48;;;;;;;4.07;2.40;;;;;;;;;;5047046;28;20036;-82
2023/10/03 08:20:15;;;;;;;3.30;2.45;;;;;;;;;;5048858;28;20048;-81
2023/10/03 08:22:42;;;;;;;5.15;2.95;;;;;;;;;;5050247;28;20493;-81
2023/10/03 08:25:09;;;;;;;8.75;2.67;;;;;;;;;;5049702;28;20029;-83
2023/10/03 08:27:34;;;;;;;7.13;2.33;;;;;;;;;;5046753;28;20476;-82
2023/10/03 08:30:01;;;;;;;7.72;3.13;;;;;;;;;;5050097;28;20031;-82
2023/10/03 08:32:26;;;;;;;3.55;2.35;;;;;;;;;;5050063;28;20023;-83
2023/10/03 08:34:54;;;;;;;5.25;3.10;;;;;;;;;;5051463;28;20044;-82
2023/10/03 08:37:22;;;;;;;5.30;3.08;;;;;;;;;;5048756;28;20056;-83
2023/10/03 08:39:51;;;;;;;4.32;2.08;;;;;;;;;;5050116;28;20359;-81
2023/10/03 08:42:35;;;;;;;10.27;4.93;;;;;;;;;;5050837;28;20029;-82
2023/10/03 08:45:16;;;;;;;3.83;2.60;;;;;;;;;;5047370;28;20499;-83
2023/10/03 08:47:47;;;;;;;2.28;1.77;;;;;;;;;;5047830;28;20032;-80
2023/10/03 08:50:34;;;;;;;6.18;2.70;;;;;;;;;;5049469;28;20024;-81
2023/10/03 08:53:12;;;;;;;11.23;3.45;;;;;;;;;;5048337;28;20052;-80
2023/10/03 08:55:48;;;;;;;11.23;2.95;;;;;;;;;;5047914;28;20053;-83
2023/10/03 08:58:18;;;;;;;4.78;3.00;;;;;;;;;;5050409;28;20036;-81
2023/10/03 09:00:46;;;;;;;6.82;2.85;;;;;;;;;;5049376;28;20039;-81
2023/10/03 09:03:13;;;;;;;2.80;1.83;;;;;;;;;;5048588;28;20044;-84
2023/10/03 09:05:40;;;;;;;3.75;2.22;;;;;;;;;;5049063;28;20044;-81
2023/10/03 09:08:10;;;;;;;5.75;2.83;;;;;;;;;;5043092;28;20025;-82
2023/10/03 09:10:51;;;;;;;2.65;2.30;;;;;;;;;;5048040;28;20359;-81
2023/10/03 09:13:23;;;;;;;3.25;2.28;;;;;;;;;;5044833;28;20025;-83
2023/10/03 09:15:59;;;;;;;5.00;2.88;;;;;;;;;;5047686;28;20170;-82
2023/10/03 09:18:30;;;;;;;4.97;2.35;;;;;;;;;;5049609;28;20016;-81
2023/10/03 09:20:59;;;;;;;3.03;2.35;;;;;;;;;;5045498;28;20051;-82
2023/10/03 09:23:38;;;;;;;16.48;4.00;;;;;;;;;;5045808;28;20098;-82
2023/10/03 09:26:06;;;;;;;6.10;2.72;;;;;;;;;;5048173;28;20059;-82
2023/10/03 09:28:40;;;;;;;2.97;2.05;;;;;;;;;;5049261;28;20134;-82
2023/10/03 09:31:09;;;;;;;7.32;3.05;;;;;;;;;;5045245;28;20021;-80
2023/10/03 09:33:38;;;;;;;5.38;2.08;;;;;;;;;;5047758;28;20036;-80
2023/10/03 09:36:04;;;;;;;4.90;2.10;;;;;;;;;;5045017;28;20029;-79
2023/10/03 09:38:47;;;;;;;4.75;2.33;;;;;;;;;;5050922;28;20359;-80
2023/10/03 09:41:17;;;;;;;3.95;1.77;;;;;;;;;;5044124;28;20037;-80
2023/10/03 09:43:47;;;;;;;3.15;2.00;;;;;;;;;;5046732;28;20037;-81
2023/10/03 09:46:23;;;;;;;10.90;1.88;;;;;;;;;;5043714;28;20759;-80
2023/10/03 09:48:53;;;;;;;3.58;2.40;;;;;;;;;;5049322;28;20044;-80
2023/10/03 09:51:36;;;;;;;5.75;3.00;;;;;;;;;;5046592;28;20108;-80
2023/10/03 09:54:13;;;;;;;3.47;1.67;;;;;;;;;;5047307;28;20104;-81
2023/10/03 09:56:40;;;;;;;8.75;2.47;;;;;;;;;;5049696;28;20554;-82
2023/10/03 09:59:07;;;;;;;4.30;2.30;;;;;;;;;;5049115;28;20473;-82
2023/10/03 10:01:39;;;;;;;3.88;1.95;;;;;;;;;;5047694;28;20021;-80
2023/10/03 10:04:07;;;;;;;3.97;1.90;;;;;;;;;;5049328;28;20158;-82
2023/10/03 10:06:41;;;;;;;6.95;2.78;;;;;;;;;;5050668;28;20048;-83
2023/10/03 10:09:14;;;;;;;4.30;2.25;;;;;;;;;;5047700;28;20488;-82
2023/10/03 10:12:11;;;;;;;2.50;1.52;;;;;;;;;;5055002;28;20027;-82
2023/10/03 10:15:13;;;;;;;3.33;2.08;;;;;;;;;;5051672;28;20029;-85
2023/10/03 10:17:54;;;;;;;6.00;2.47;;;;;;;;;;5054612;28;20099;-82
2023/10/03 10:20:37;;;;;;;3.38;2.25;;;;;;;;;;5048062;28;20025;-83
2023/10/03 10:23:06;;;;;;;3.00;1.80;;;;;;;;;;5058665;28;20037;-83
2023/10/03 10:25:43;;;;;;;2.35;1.58;;;;;;;;;;5058997;28;20037;-85
2023/10/03 10:28:10;;;;;;;10.23;2.45;;;;;;;;;;5050395;28;20032;-81
2023/10/03 10:30:38;;;;;;;7.85;1.90;;;;;;;;;;5051943;28;20024;-84
2023/10/03 10:33:17;;;;;;;3.03;2.00;;;;;;;;;;5066443;28;20035;-84
2023/10/03 10:35:54;;;;;;;5.47;2.80;;;;;;;;;;5051608;28;20121;-86
2023/10/03 10:38:22;;;;;;;4.18;2.13;;;;;;;;;;5057491;28;20036;-85
2023/10/03 10:41:22;;;;;;;6.25;2.42;;;;;;;;;;5055076;28;20033;-86
2023/10/03 10:44:14;;;;;;;3.92;2.30;;;;;;;;;;5054436;28;20048;-88
2023/10/03 10:46:45;;;;;;;4.70;2.17;;;;;;;;;;5048571;28;20075;-86
2023/10/03 10:49:39;;;;;;;4.40;2.40;;;;;;;;;;5054521;28;20423;-86
2023/10/03 10:52:07;;;;;;;3.47;2.38;;;;;;;;;;5054044;28;20025;-84
2023/10/03 10:54:39;;;;;;;4.38;2.05;;;;;;;;;;5053780;28;20033;-86
2023/10/03 10:57:06;;;;;;;4.18;2.22;;;;;;;;;;5052209;28;20033;-84
2023/10/03 10:59:48;;;;;;;3.45;1.80;;;;;;;;;;5054693;28;20041;-84
2023/10/03 11:02:18;;;;;;;2.22;1.65;;;;;;;;;;5052868;28;20048;-87
2023/10/03 11:04:51;;;;;;;4.65;2.60;;;;;;;;;;5052939;28;20079;-86
2023/10/03 11:07:28;;;;;;;4.07;1.85;;;;;;;;;;5054473;28;20021;-85
2023/10/03 11:09:56;;;;;;;4.97;2.40;;;;;;;;;;5053061;28;20721;-86
2023/10/03 11:12:22;;;;;;;4.57;2.10;;;;;;;;;;5053197;28;20025;-87
2023/10/03 11:14:52;;;;;;;5.00;2.53;;;;;;;;;;5053041;28;20025;-86
2023/10/03 11:17:18;;;;;;;2.60;1.92;;;;;;;;;;5054819;28;20469;-85
2023/10/03 11:19:44;;;;;;;4.45;2.28;;;;;;;;;;5055115;28;20118;-83
2023/10/03 11:22:12;;;;;;;3.97;2.42;;;;;;;;;;5054849;28;20041;-85
2023/10/03 11:24:42;;;;;;;5.13;2.05;;;;;;;;;;5055768;28;20393;-85
2023/10/03 11:27:08;;;;;;;1.73;1.40;;;;;;;;;;5056564;28;20098;-87
2023/10/03 11:29:48;;;;;;;;;;;;;;;;;;;;;
2023/10/03 11:36:05;;;;;;;2.95;2.10;;;;;;;;;;4997485;28;20038;-85
2023/10/03 11:38:56;;;;;;;2.70;1.88;;;;;;;;;;5057002;28;20130;-86
2023/10/03 11:41:54;;;;;;;3.97;2.55;;;;;;;;;;5024401;28;20063;-86
2023/10/03 11:44:39;;;;;;;2.00;1.63;;;;;;;;;;5042384;28;20037;-87
2023/10/03 11:47:44;;;;;;;;;;;;;;;;;;;;;
2023/10/03 11:50:54;;;;;;;;;;;;;;;;;;;;;
2023/10/03 11:53:21;;;;;;;5.07;2.67;;;;;;;;;;5036160;28;20032;-86
2023/10/03 11:56:23;;;;;;;4.10;2.72;;;;;;;;;;5055600;28;20033;-86
2023/10/03 11:58:52;;;;;;;3.40;1.90;;;;;;;;;;5016762;28;20041;-83
2023/10/03 12:01:20;;;;;;;4.32;2.75;;;;;;;;;;5050877;28;20116;-84
2023/10/03 12:03:51;;;;;;;2.72;1.55;;;;;;;;;;5054203;28;20028;-85
2023/10/03 12:06:17;;;;;;;4.30;2.55;;;;;;;;;;5049791;28;20037;-84
2023/10/03 12:08:43;;;;;;;3.92;1.70;;;;;;;;;;5049308;28;20051;-83
2023/10/03 12:11:14;;;;;;;4.60;2.03;;;;;;;;;;5049154;28;20454;-84
2023/10/03 12:13:42;;;;;;;4.10;2.38;;;;;;;;;;5049070;28;20025;-82
2023/10/03 12:16:07;;;;;;;3.53;1.88;;;;;;;;;;5049555;28;20033;-82
2023/10/03 12:18:33;;;;;;;2.78;1.92;;;;;;;;;;5049412;28;20378;-84
2023/10/03 12:20:58;;;;;;;3.17;2.15;;;;;;;;;;5050433;28;20028;-81
2023/10/03 12:23:24;;;;;;;3.60;1.67;;;;;;;;;;5050646;28;20041;-82
2023/10/03 12:25:49;;;;;;;2.97;1.77;;;;;;;;;;5050685;28;20131;-81
2023/10/03 12:28:17;;;;;;;4.72;2.72;;;;;;;;;;5050514;28;20024;-82
2023/10/03 12:30:45;;;;;;;4.32;2.22;;;;;;;;;;5049074;28;20040;-83
2023/10/03 12:33:16;;;;;;;2.42;2.00;;;;;;;;;;5048621;28;20147;-84
2023/10/03 12:35:41;;;;;;;4.97;3.00;;;;;;;;;;5047295;28;20115;-80
2023/10/03 12:38:10;;;;;;;2.20;1.80;;;;;;;;;;5050080;28;20442;-82
2023/10/03 12:40:38;;;;;;;5.57;2.42;;;;;;;;;;5051787;28;20029;-83
2023/10/03 12:43:04;;;;;;;8.70;3.10;;;;;;;;;;5050152;28;20079;-84
2023/10/03 12:45:29;;;;;;;9.00;2.83;;;;;;;;;;5049813;28;21365;-83
2023/10/03 12:47:56;;;;;;;2.75;1.52;;;;;;;;;;5049622;28;20065;-83
2023/10/03 12:50:24;;;;;;;3.58;2.13;;;;;;;;;;5049035;28;20032;-84
2023/10/03 12:52:58;;;;;;;2.60;1.50;;;;;;;;;;5051095;28;20025;-84
2023/10/03 12:58:43;;;;;;;1.70;1.40;;;;;;;;;;5105296;28;20411;-85
2023/10/03 13:04:44;;;;;;;3.17;2.08;;;;;;;;;;5092413;28;20039;-88
2023/10/03 13:07:11;;;;;;;4.28;1.92;;;;;;;;;;5103600;28;20032;-86
2023/10/03 13:09:39;;;;;;;4.63;2.28;;;;;;;;;;5104258;28;20106;-87
2023/10/03 13:12:06;;;;;;;11.88;3.90;;;;;;;;;;5104890;28;20030;-86
2023/10/03 13:14:32;;;;;;;4.18;2.25;;;;;;;;;;5108123;28;20027;-87
2023/10/03 13:16:59;;;;;;;3.92;2.10;;;;;;;;;;5103361;28;20016;-82
2023/10/03 13:19:31;;;;;;;3.63;2.15;;;;;;;;;;5101131;28;20027;-82
2023/10/03 13:21:58;;;;;;;2.70;2.35;;;;;;;;;;5101960;28;20486;-82
2023/10/03 13:24:25;;;;;;;4.85;2.78;;;;;;;;;;5096592;28;20473;-77
2023/10/03 13:26:53;;;;;;;9.90;4.45;;;;;;;;;;5100323;28;20503;-75
2023/10/03 13:29:24;;;;;;;8.25;4.35;;;;;;;;;;5098164;28;20540;-76
2023/10/03 13:31:52;;;;;;;9.85;4.70;;;;;;;;;;5078762;28;20038;-79
2023/10/03 13:34:21;;;;;;;7.70;3.78;;;;;;;;;;5073987;28;20017;-80
2023/10/03 13:36:47;;;;;;;3.00;1.88;;;;;;;;;;5077448;28;20024;-80
2023/10/03 13:39:13;;;;;;;5.65;2.97;;;;;;;;;;5077542;28;20033;-80
2023/10/03 13:41:42;;;;;;;4.40;2.92;;;;;;;;;;5075063;28;20032;-79
2023/10/03 13:44:11;;;;;;;;;;;;;;;;;;5081280;28;20024;-84
2023/10/03 13:46:39;;;;;;;3.42;2.58;;;;;;;;;;5095010;28;19912;-84
2023/10/03 13:49:06;;;;;;;6.30;2.95;;;;;;;;;;5103582;28;20032;-84
2023/10/03 13:51:33;;;;;;;4.32;3.03;;;;;;;;;;5105775;28;20096;-83
2023/10/03 13:53:59;;;;;;;4.40;2.40;;;;;;;;;;5105158;28;20023;-83
2023/10/03 13:56:25;;;;;;;2.92;1.60;;;;;;;;;;5105750;28;20582;-84
2023/10/03 13:58:52;;;;;;;5.50;2.55;;;;;;;;;;5102694;28;20024;-84
2023/10/03 14:01:17;;;;;;;4.05;2.42;;;;;;;;;;5105560;28;20023;-84
2023/10/03 14:03:43;;;;;;;2.95;2.25;;;;;;;;;;5104016;28;20077;-83
2023/10/03 14:06:15;;;;;;;3.25;2.40;;;;;;;;;;5105056;28;20035;-83
2023/10/03 14:08:43;;;;;;;4.45;2.17;;;;;;;;;;5097128;28;20027;-83
2023/10/03 14:11:08;;;;;;;4.68;2.42;;;;;;;;;;5092624;28;20024;-83
2023/10/03 14:13:34;;;;;;;5.18;2.58;;;;;;;;;;5090941;28;20015;-83
2023/10/03 14:16:00;;;;;;;5.32;3.33;;;;;;;;;;5091585;28;20107;-83
2023/10/03 14:18:26;;;;;;;5.10;3.28;;;;;;;;;;5086770;28;20181;-83
2023/10/03 14:20:52;;;;;;;6.43;3.40;;;;;;;;;;5089232;28;20481;-82
2023/10/03 14:23:17;;;;;;;7.53;3.78;;;;;;;;;;5090128;28;20031;-82
2023/10/03 14:25:43;;;;;;;6.45;3.75;;;;;;;;;;5091881;28;20019;-82
2023/10/03 14:28:10;;;;;;;8.35;3.53;;;;;;;;;;5089779;28;20032;-82
2023/10/03 14:30:36;;;;;;;5.63;2.90;;;;;;;;;;5090023;28;20035;-82
2023/10/03 14:33:03;;;;;;;7.38;2.17;;;;;;;;;;5091927;28;20020;-82
2023/10/03 14:35:29;;;;;;;5.55;2.55;;;;;;;;;;5090676;28;20395;-82
2023/10/03 14:37:54;;;;;;;8.50;3.85;;;;;;;;;;5080650;28;20016;-81
2023/10/03 14:40:21;;;;;;;5.30;3.42;;;;;;;;;;5090764;28;20027;-81
2023/10/03 14:42:49;;;;;;;3.55;2.35;;;;;;;;;;5090215;28;20028;-81
2023/10/03 14:45:18;;;;;;;4.00;2.25;;;;;;;;;;5090915;28;20518;-81
2023/10/03 14:47:43;;;;;;;8.00;2.08;;;;;;;;;;5090425;28;20051;-81
2023/10/03 14:50:10;;;;;;;4.05;2.00;;;;;;;;;;5090994;28;20449;-83
2023/10/03 14:52:36;;;;;;;2.40;1.52;;;;;;;;;;5091818;28;20032;-82
2023/10/03 14:55:02;;;;;;;3.22;2.00;;;;;;;;;;5089995;28;20080;-82
2023/10/03 14:57:27;;;;;;;6.13;2.40;;;;;;;;;;5085802;28;20040;-83
2023/10/03 14:59:54;;;;;;;3.20;1.83;;;;;;;;;;5087478;28;20034;-83
2023/10/03 15:02:19;;;;;;;2.90;1.75;;;;;;;;;;5090941;28;20115;-82
2023/10/03 15:04:45;;;;;;;1.55;1.38;;;;;;;;;;5090005;28;20450;-83
2023/10/03 15:07:16;;;;;;;2.47;1.60;;;;;;;;;;5089094;28;20081;-83
2023/10/03 15:09:42;;;;;;;3.70;1.95;;;;;;;;;;5088399;28;20048;-83
2023/10/03 15:12:08;;;;;;;3.00;1.27;;;;;;;;;;5090936;28;20048;-84
2023/10/03 15:14:33;;;;;;;2.08;1.75;;;;;;;;;;5089314;28;20028;-83
2023/10/03 15:17:00;;;;;;;2.60;1.70;;;;;;;;;;5087198;28;20043;-83
2023/10/03 15:19:26;;;;;;;5.80;2.20;;;;;;;;;;5082370;28;20028;-85
2023/10/03 15:21:52;;;;;;;2.45;1.80;;;;;;;;;;5090817;28;20453;-85
2023/10/03 15:24:19;;;;;;;3.25;2.13;;;;;;;;;;5090143;28;20031;-83
2023/10/03 15:26:45;;;;;;;2.53;1.52;;;;;;;;;;5090321;28;20096;-84
2023/10/03 15:29:11;;;;;;;1.90;1.33;;;;;;;;;;5088246;28;20032;-83
2023/10/03 15:31:37;;;;;;;3.22;1.95;;;;;;;;;;5090707;28;20066;-84
2023/10/03 15:34:03;;;;;;;4.00;2.28;;;;;;;;;;5090046;28;21521;-85
2023/10/03 15:36:37;;;;;;;2.00;1.30;;;;;;;;;;5087637;28;20023;-85
2023/10/03 15:39:12;;;;;;;3.42;2.83;;;;;;;;;;5086687;28;20045;-82
2023/10/03 15:41:38;;;;;;;3.00;1.95;;;;;;;;;;5089783;28;20036;-82
2023/10/03 15:44:04;;;;;;;4.22;1.48;;;;;;;;;;5090256;28;20150;-83
2023/10/03 15:46:29;;;;;;;3.28;1.85;;;;;;;;;;5090442;28;20468;-85
2023/10/03 15:48:55;;;;;;;2.63;1.63;;;;;;;;;;5084137;28;20032;-84
2023/10/03 15:51:20;;;;;;;3.88;1.50;;;;;;;;;;5088940;28;20038;-86
2023/10/03 15:53:46;;;;;;;3.88;2.22;;;;;;;;;;5085357;28;20087;-84
2023/10/03 15:56:13;;;;;;;6.07;2.05;;;;;;;;;;5086105;28;20476;-84
2023/10/03 15:58:39;;;;;;;2.28;1.65;;;;;;;;;;5087737;28;20044;-85
2023/10/03 16:01:05;;;;;;;2.78;1.70;;;;;;;;;;5083266;28;20027;-82
2023/10/03 16:03:31;;;;;;;3.00;1.88;;;;;;;;;;5082276;28;20476;-85
2023/10/03 16:05:57;;;;;;;4.18;2.80;;;;;;;;;;5080359;28;20480;-85
2023/10/03 16:08:26;;;;;;;3.08;1.67;;;;;;;;;;5087794;28;20031;-85
2023/10/03 16:10:53;;;;;;;4.13;1.65;;;;;;;;;;5089154;28;20036;-87
2023/10/03 16:13:19;;;;;;;2.78;1.73;;;;;;;;;;5083959;28;20033;-84
2023/10/03 16:15:47;;;;;;;1.35;1.23;;;;;;;;;;5087813;28;20077;-85
2023/10/03 16:18:13;;;;;;;3.60;1.85;;;;;;;;;;5087514;28;20472;-85
2023/10/03 16:20:41;;;;;;;1.60;1.40;;;;;;;;;;5081807;28;20530;-84
